createdAt,value
2023-05-06T00:00:22.332Z,99791.63
2023-05-06T00:02:49.394Z,99784.03
2023-05-06T00:05:18.445Z,99775.63
2023-05-06T00:07:46.264Z,99779.97
2023-05-06T00:10:13.408Z,99780.91
2023-05-06T00:12:40.407Z,99780.13
2023-05-06T00:15:08.161Z,99773.41
2023-05-06T00:17:35.549Z,99773.47
2023-05-06T00:20:03.727Z,99768.41
2023-05-06T00:22:30.943Z,99760.81
2023-05-06T00:24:57.896Z,99768.50
2023-05-06T00:27:24.915Z,99769.41
2023-05-06T00:29:52.065Z,99763.50
2023-05-06T00:32:19.039Z,99770.34
2023-05-06T00:34:46.061Z,99771.25
2023-05-06T00:37:13.118Z,99764.53
2023-05-06T00:39:40.284Z,99760.34
2023-05-06T00:42:07.650Z,99768.88
2023-05-06T00:44:34.604Z,99757.06
2023-05-06T00:47:02.081Z,99765.63
2023-05-06T00:49:30.546Z,99763.13
2023-05-06T00:51:58.929Z,99764.03
2023-05-06T00:54:27.108Z,99760.72
2023-05-06T00:56:54.441Z,99644.50
2023-05-06T00:59:23.087Z,99759.97
2023-05-06T01:01:52.119Z,99749.84
2023-05-06T01:04:19.774Z,99757.53
2023-05-06T01:07:08.269Z,99755.91
2023-05-06T01:10:00.197Z,99761.06
2023-05-06T01:12:42.307Z,99758.59
2023-05-06T01:15:23.400Z,99759.47
2023-05-06T01:17:53.656Z,99762.09
2023-05-06T01:20:22.533Z,99767.19
2023-05-06T01:22:50.554Z,99769.72
2023-05-06T01:25:22.138Z,99768.06
2023-05-06T01:27:50.610Z,99761.34
2023-05-06T01:30:20.427Z,99762.22
2023-05-06T01:33:14.002Z,99767.38
2023-05-06T01:36:08.111Z,99770.81
2023-05-06T01:38:52.659Z,99770.84
2023-05-06T01:41:22.711Z,99766.66
2023-05-06T01:43:52.706Z,99766.69
2023-05-06T01:46:22.405Z,99764.97
2023-05-06T01:48:56.760Z,99768.38
2023-05-06T01:51:24.119Z,99767.56
2023-05-06T01:53:51.118Z,99769.28
2023-05-06T01:56:18.144Z,99775.22
2023-05-06T01:58:45.087Z,99770.22
2023-05-06T02:01:12.050Z,99777.81
2023-05-06T02:03:40.381Z,99786.31
2023-05-06T02:06:07.736Z,99771.13
2023-05-06T02:08:40.962Z,99777.09
2023-05-06T02:11:10.475Z,99772.88
2023-05-06T02:13:38.033Z,99775.47
2023-05-06T02:16:07.182Z,99781.41
2023-05-06T02:18:34.992Z,99777.19
2023-05-06T02:21:03.134Z,99777.19
2023-05-06T02:23:30.596Z,99777.22
2023-05-06T02:25:58.943Z,99775.56
2023-05-06T02:28:25.962Z,99774.72
2023-05-06T02:30:59.090Z,99776.44
2023-05-06T02:33:26.233Z,99779.84
2023-05-06T02:35:53.348Z,99776.47
2023-05-06T02:38:21.402Z,99778.19
2023-05-06T02:40:48.582Z,99773.97
2023-05-06T02:43:15.667Z,99777.34
2023-05-06T02:45:42.681Z,99775.69
2023-05-06T02:48:09.720Z,99778.22
2023-05-06T02:50:37.059Z,99779.09
2023-05-06T02:53:04.067Z,99769.78
2023-05-06T02:55:31.236Z,99773.19
2023-05-06T02:57:58.173Z,99774.84
2023-05-06T03:00:25.278Z,99770.66
2023-05-06T03:02:52.341Z,99769.81
2023-05-06T03:05:19.511Z,99773.22
2023-05-06T03:07:47.042Z,99767.28
2023-05-06T03:10:14.854Z,99766.47
2023-05-06T03:12:42.388Z,99765.63
2023-05-06T03:15:10.361Z,99763.94
2023-05-06T03:17:38.501Z,99775.00
2023-05-06T03:20:08.678Z,99767.34
2023-05-06T03:22:38.113Z,99768.25
2023-05-06T03:25:05.982Z,99772.44
2023-05-06T03:27:34.662Z,99764.88
2023-05-06T03:30:08.744Z,99758.94
2023-05-06T03:32:38.649Z,99753.88
2023-05-06T03:35:11.575Z,99759.81
2023-05-06T03:37:40.804Z,99766.56
2023-05-06T03:40:08.960Z,99760.66
2023-05-06T03:42:36.336Z,99763.22
2023-05-06T03:45:06.469Z,99759.81
2023-05-06T03:47:34.127Z,99760.66
2023-05-06T03:50:02.889Z,99758.13
2023-05-06T03:52:32.138Z,99762.38
2023-05-06T03:55:00.192Z,99761.53
2023-05-06T03:57:29.621Z,99759.81
2023-05-06T03:59:57.059Z,99765.75
2023-05-06T04:02:25.845Z,99765.75
2023-05-06T04:04:53.205Z,99763.25
2023-05-06T04:07:20.253Z,99776.78
2023-05-06T04:09:47.219Z,99769.19
2023-05-06T04:12:14.538Z,99774.25
2023-05-06T04:14:41.564Z,99770.88
2023-05-06T04:17:09.751Z,99771.72
2023-05-06T04:19:38.098Z,99766.63
2023-05-06T04:22:05.154Z,99764.88
2023-05-06T04:24:32.205Z,99773.31
2023-05-06T04:26:59.935Z,99764.84
2023-05-06T04:29:28.010Z,99778.31
2023-05-06T04:32:00.692Z,99783.34
2023-05-06T04:34:30.914Z,99784.97
2023-05-06T04:37:01.221Z,99785.72
2023-05-06T04:39:42.536Z,99780.56
2023-05-06T04:42:09.518Z,99777.03
2023-05-06T04:44:43.746Z,99796.34
2023-05-06T04:47:12.061Z,99791.06
2023-05-06T04:49:41.969Z,99782.38
2023-05-06T04:52:09.374Z,99788.13
2023-05-06T04:54:36.651Z,99790.41
2023-05-06T04:57:04.808Z,99786.69
2023-05-06T04:59:33.075Z,99792.31
2023-05-06T05:02:02.105Z,99799.59
2023-05-06T05:04:29.204Z,99802.59
2023-05-06T05:06:56.267Z,99801.38
2023-05-06T05:09:23.315Z,99802.59
2023-05-06T05:11:51.087Z,99800.47
2023-05-06T05:14:18.919Z,99805.88
2023-05-06T05:16:46.718Z,99802.91
2023-05-06T05:19:14.316Z,99807.63
2023-05-06T05:21:42.068Z,99811.59
2023-05-06T05:24:10.981Z,99813.94
2023-05-06T05:26:38.242Z,99817.09
2023-05-06T05:29:06.453Z,99815.97
2023-05-06T05:31:33.680Z,99809.63
2023-05-06T05:34:01.515Z,99808.38
2023-05-06T05:36:28.950Z,99812.06
2023-05-06T05:38:58.282Z,99810.66
2023-05-06T05:41:27.112Z,99816.91
2023-05-06T05:43:55.427Z,99816.34
2023-05-06T05:46:22.773Z,99804.53
2023-05-06T05:48:50.932Z,99808.94
2023-05-06T05:51:20.694Z,99809.88
2023-05-06T05:53:47.704Z,99804.78
2023-05-06T05:56:15.792Z,99814.94
2023-05-06T05:58:42.788Z,99801.16
2023-05-06T06:01:09.790Z,99809.75
2023-05-06T06:03:37.709Z,99813.13
2023-05-06T06:06:06.145Z,99807.06
2023-05-06T06:08:33.921Z,99810.44
2023-05-06T06:11:05.741Z,99807.81
2023-05-06T06:13:38.026Z,99798.09
2023-05-06T06:16:06.243Z,99806.63
2023-05-06T06:18:33.998Z,99815.09
2023-05-06T06:21:01.079Z,99814.88
2023-05-06T06:23:28.221Z,99810.38
2023-05-06T06:25:55.320Z,99801.41
2023-05-06T06:28:23.329Z,99808.63
2023-05-06T06:30:50.459Z,99804.84
2023-05-06T06:33:17.842Z,99806.19
2023-05-06T06:35:44.847Z,99804.03
2023-05-06T06:38:11.813Z,99799.34
2023-05-06T06:40:39.103Z,99803.19
2023-05-06T06:43:06.085Z,99802.84
2023-05-06T06:45:54.831Z,99799.81
2023-05-06T06:48:21.870Z,99803.63
2023-05-06T06:50:48.843Z,99802.31
2023-05-06T06:53:16.138Z,99803.66
2023-05-06T06:55:47.044Z,99798.03
2023-05-06T06:58:14.162Z,99793.22
2023-05-06T07:00:41.159Z,99801.31
2023-05-06T07:03:08.148Z,99793.84
2023-05-06T07:05:35.108Z,99795.41
2023-05-06T07:08:02.072Z,99806.09
2023-05-06T07:10:29.092Z,99797.16
2023-05-06T07:12:56.142Z,99808.34
2023-05-06T07:15:23.329Z,99810.59
2023-05-06T07:17:50.467Z,99805.78
2023-05-06T07:20:17.533Z,99806.66
2023-05-06T07:22:45.835Z,99804.13
2023-05-06T07:25:13.066Z,99814.63
2023-05-06T07:27:40.268Z,99814.69
2023-05-06T07:30:08.274Z,99813.66
2023-05-06T07:32:35.811Z,99814.13
2023-05-06T07:35:03.713Z,99827.94
2023-05-06T07:37:30.878Z,99816.94
2023-05-06T07:39:58.241Z,99821.16
2023-05-06T07:42:25.412Z,99808.31
2023-05-06T07:44:52.466Z,99810.03
2023-05-06T07:47:32.379Z,99818.53
2023-05-06T07:50:00.245Z,99822.13
2023-05-06T07:52:27.691Z,99818.72
2023-05-06T07:54:54.831Z,99819.41
2023-05-06T07:57:21.858Z,99823.84
2023-05-06T07:59:51.263Z,99829.47
2023-05-06T08:02:18.723Z,99817.22
2023-05-06T08:04:46.435Z,99825.16
2023-05-06T08:07:14.757Z,99829.06
2023-05-06T08:09:41.745Z,99821.88
2023-05-06T08:12:09.990Z,99822.78
2023-05-06T08:14:37.025Z,99825.44
2023-05-06T08:17:04.287Z,99828.66
2023-05-06T08:19:31.356Z,99825.31
2023-05-06T08:21:58.367Z,99826.53
2023-05-06T08:24:25.590Z,99822.78
2023-05-06T08:26:52.557Z,99821.97
2023-05-06T08:29:19.707Z,99831.16
2023-05-06T08:31:47.407Z,99824.84
2023-05-06T08:34:14.502Z,99817.09
2023-05-06T08:36:41.462Z,99813.50
2023-05-06T08:39:08.411Z,99816.81
2023-05-06T08:41:38.308Z,99815.19
2023-05-06T08:44:07.423Z,99813.53
2023-05-06T08:46:34.766Z,99819.47
2023-05-06T08:49:02.409Z,99818.53
2023-05-06T08:51:31.720Z,99820.03
2023-05-06T08:54:02.442Z,99822.97
2023-05-06T08:56:33.476Z,99806.69
2023-05-06T08:59:01.196Z,99815.56
2023-05-06T09:01:28.813Z,99808.69
2023-05-06T09:03:58.089Z,99815.09
2023-05-06T09:06:25.350Z,99806.06
2023-05-06T09:08:52.536Z,99809.97
2023-05-06T09:11:24.830Z,99799.28
2023-05-06T09:14:08.229Z,99800.41
2023-05-06T09:16:35.203Z,99798.06
2023-05-06T09:19:02.359Z,99802.47
2023-05-06T09:21:42.905Z,99797.97
2023-05-06T09:24:12.401Z,99792.56
2023-05-06T09:26:42.117Z,99790.47
2023-05-06T09:29:09.478Z,99783.31
2023-05-06T09:31:47.205Z,99786.78
2023-05-06T09:34:15.887Z,99781.72
2023-05-06T09:36:42.883Z,99782.88
2023-05-06T09:39:10.381Z,99773.38
2023-05-06T09:41:37.463Z,99768.38
2023-05-06T09:44:04.874Z,99781.25
2023-05-06T09:46:32.806Z,99781.53
2023-05-06T09:49:00.437Z,99783.94
2023-05-06T09:51:28.490Z,99781.00
2023-05-06T09:53:57.779Z,99776.78
2023-05-06T09:56:26.199Z,99777.53
2023-05-06T09:58:55.622Z,99771.44
2023-05-06T10:01:35.518Z,99771.13
2023-05-06T10:04:08.948Z,99769.75
2023-05-06T10:06:40.172Z,99772.28
2023-05-06T10:09:11.353Z,99772.72
2023-05-06T10:11:39.883Z,99763.00
2023-05-06T10:14:07.773Z,99768.84
2023-05-06T10:16:36.977Z,99768.44
2023-05-06T10:19:07.324Z,99766.53
2023-05-06T10:21:40.531Z,99760.28
2023-05-06T10:24:13.333Z,99760.75
2023-05-06T10:26:42.531Z,99764.38
2023-05-06T10:29:11.222Z,99753.78
2023-05-06T10:31:50.941Z,99755.41
2023-05-06T10:34:21.829Z,99757.50
2023-05-06T10:36:57.318Z,99749.50
2023-05-06T10:39:25.371Z,99754.69
2023-05-06T10:41:52.533Z,99745.88
2023-05-06T10:44:57.522Z,99750.84
2023-05-06T10:47:24.956Z,99745.84
2023-05-06T10:50:22.951Z,99752.72
2023-05-06T10:52:56.757Z,99746.59
2023-05-06T10:55:35.179Z,99748.50
2023-05-06T10:58:11.055Z,99728.47
2023-05-06T11:00:38.109Z,99735.06
2023-05-06T11:03:18.683Z,99733.59
2023-05-06T11:05:51.609Z,99733.28
2023-05-06T11:08:27.077Z,99740.28
2023-05-06T11:10:54.622Z,99731.91
2023-05-06T11:13:34.383Z,99715.75
2023-05-06T11:16:02.463Z,99723.63
2023-05-06T11:18:30.853Z,99707.94
2023-05-06T11:21:00.315Z,99715.09
2023-05-06T11:23:42.633Z,99712.16
2023-05-06T11:26:11.504Z,99709.09
2023-05-06T11:28:40.337Z,99709.78
2023-05-06T11:31:09.246Z,99707.50
2023-05-06T11:33:38.041Z,99708.00
2023-05-06T11:36:06.542Z,99712.09
2023-05-06T11:38:42.276Z,99704.53
2023-05-06T11:41:09.261Z,99711.09
2023-05-06T11:43:36.226Z,99711.28
2023-05-06T11:46:03.442Z,99713.84
2023-05-06T11:48:30.898Z,99710.00
2023-05-06T11:50:58.109Z,99706.84
2023-05-06T11:53:25.368Z,99710.66
2023-05-06T11:55:53.838Z,99710.16
2023-05-06T11:58:26.985Z,99715.09
2023-05-06T12:00:55.945Z,99712.34
2023-05-06T12:03:25.271Z,99713.81
2023-05-06T12:05:53.008Z,99703.00
2023-05-06T12:08:29.156Z,99711.19
2023-05-06T12:11:02.264Z,99718.31
2023-05-06T12:13:30.155Z,99711.69
2023-05-06T12:15:59.868Z,99718.03
2023-05-06T12:18:28.035Z,99718.13
2023-05-06T12:20:56.937Z,99714.72
2023-05-06T12:23:24.109Z,99723.22
2023-05-06T12:26:06.115Z,99730.81
2023-05-06T12:28:36.385Z,99732.41
2023-05-06T12:31:20.227Z,99732.38
2023-05-06T12:33:49.911Z,99732.47
2023-05-06T12:36:18.798Z,99746.06
2023-05-06T12:38:54.172Z,99762.88
2023-05-06T12:41:22.959Z,99767.28
2023-05-06T12:43:52.325Z,99772.25
2023-05-06T12:46:19.455Z,99776.09
2023-05-06T12:49:01.090Z,99777.34
2023-05-06T12:51:30.884Z,99772.47
2023-05-06T12:53:58.130Z,99776.03
2023-05-06T12:56:25.269Z,99779.72
2023-05-06T12:59:04.193Z,99783.16
2023-05-06T13:01:31.566Z,99777.72
2023-05-06T13:03:58.822Z,99776.88
2023-05-06T13:06:25.896Z,99781.03
2023-05-06T13:08:53.012Z,99784.13
2023-05-06T13:11:22.030Z,99788.81
2023-05-06T13:13:49.009Z,99791.72
2023-05-06T13:16:16.322Z,99797.09
2023-05-06T13:18:43.315Z,99792.81
2023-05-06T13:21:10.329Z,99795.63
2023-05-06T13:23:38.084Z,99797.66
2023-05-06T13:26:06.035Z,99796.34
2023-05-06T13:28:35.311Z,99801.03
2023-05-06T13:31:02.961Z,99803.31
2023-05-06T13:33:30.132Z,99791.06
2023-05-06T13:35:57.619Z,99795.91
2023-05-06T13:38:24.665Z,99787.28
2023-05-06T13:40:53.605Z,99787.16
2023-05-06T13:43:21.692Z,99790.28
2023-05-06T13:45:48.657Z,99786.69
2023-05-06T13:48:15.729Z,99790.34
2023-05-06T13:50:46.758Z,99786.81
2023-05-06T13:53:14.533Z,99785.66
2023-05-06T13:55:42.970Z,99789.72
2023-05-06T13:58:10.949Z,99782.53
2023-05-06T14:00:38.015Z,99782.09
2023-05-06T14:03:05.082Z,99778.16
2023-05-06T14:05:32.804Z,99775.88
2023-05-06T14:07:59.908Z,99782.25
2023-05-06T14:10:27.105Z,99776.59
2023-05-06T14:12:54.160Z,99765.13
2023-05-06T14:15:21.825Z,99754.72
2023-05-06T14:17:48.998Z,99753.81
2023-05-06T14:20:16.113Z,99755.47
2023-05-06T14:22:44.456Z,99751.22
2023-05-06T14:25:12.004Z,99742.06
2023-05-06T14:27:39.368Z,99740.44
2023-05-06T14:30:09.284Z,99744.06
2023-05-06T14:32:37.314Z,99740.16
2023-05-06T14:35:05.032Z,99746.28
2023-05-06T14:37:32.052Z,99747.22
2023-05-06T14:39:59.016Z,99737.56
2023-05-06T14:42:25.948Z,99736.50
2023-05-06T14:44:52.888Z,99723.59
2023-05-06T14:47:20.038Z,99720.06
2023-05-06T14:49:47.128Z,99717.31
2023-05-06T14:52:14.164Z,99719.81
2023-05-06T14:54:42.376Z,99721.44
2023-05-06T14:57:10.729Z,99718.03
2023-05-06T14:59:38.638Z,99723.38
2023-05-06T15:02:09.245Z,99721.84
2023-05-06T15:04:36.928Z,99721.47
2023-05-06T15:07:04.335Z,99731.31
2023-05-06T15:09:31.459Z,99729.91
2023-05-06T15:11:58.542Z,99723.69
2023-05-06T15:14:25.800Z,99727.63
2023-05-06T15:16:57.137Z,99723.03
2023-05-06T15:19:24.716Z,99719.94
2023-05-06T15:21:51.720Z,99718.41
2023-05-06T15:24:18.722Z,99731.38
2023-05-06T15:26:45.887Z,99733.88
2023-05-06T15:29:13.063Z,99729.56
2023-05-06T15:31:40.847Z,99728.72
2023-05-06T15:34:11.011Z,99731.22
2023-05-06T15:36:39.779Z,99728.88
2023-05-06T15:39:06.818Z,99728.97
2023-05-06T15:41:36.108Z,99723.84
2023-05-06T15:44:06.202Z,99736.84
2023-05-06T15:46:33.889Z,99733.84
2023-05-06T15:52:26.556Z,99743.69
2023-05-06T15:54:58.842Z,99742.50
2023-05-06T15:57:26.351Z,99741.22
2023-05-06T15:59:53.284Z,99734.72
2023-05-06T16:02:26.080Z,99737.75
2023-05-06T16:04:54.556Z,99735.56
2023-05-06T16:07:21.791Z,99736.75
2023-05-06T16:09:50.280Z,99730.25
2023-05-06T16:12:17.213Z,99729.78
2023-05-06T16:14:44.367Z,99735.34
2023-05-06T16:17:11.311Z,99731.31
2023-05-06T16:19:38.325Z,99734.00
2023-05-06T16:22:05.257Z,99723.13
2023-05-06T16:24:32.206Z,99728.47
2023-05-06T16:26:59.189Z,99731.25
2023-05-06T16:29:26.102Z,99724.63
2023-05-06T16:31:53.324Z,99729.09
2023-05-06T16:34:20.638Z,99718.03
2023-05-06T16:36:47.725Z,99725.72
2023-05-06T16:39:14.632Z,99724.06
2023-05-06T16:41:42.681Z,99724.13
2023-05-06T16:44:09.609Z,99724.13
2023-05-06T16:46:36.596Z,99714.84
2023-05-06T16:49:04.506Z,99723.56
2023-05-06T16:51:32.134Z,99720.34
2023-05-06T16:53:59.063Z,99714.34
2023-05-06T16:56:32.948Z,99722.97
2023-05-06T16:59:07.362Z,99720.50
2023-05-06T17:01:34.420Z,99715.59
2023-05-06T17:04:01.436Z,99715.63
2023-05-06T17:06:31.176Z,99720.06
2023-05-06T17:08:58.927Z,99715.09
2023-05-06T17:11:25.876Z,99713.53
2023-05-06T17:13:54.226Z,99717.91
2023-05-06T17:16:21.681Z,99721.41
2023-05-06T17:18:48.774Z,99735.16
2023-05-06T17:21:16.367Z,99736.94
2023-05-06T17:23:44.144Z,99732.81
2023-05-06T17:26:11.214Z,99736.38
2023-05-06T17:28:38.143Z,99739.03
2023-05-06T17:31:05.356Z,99733.06
2023-05-06T17:33:32.331Z,99737.41
2023-05-06T17:35:59.412Z,99729.69
2023-05-06T17:38:26.370Z,99732.19
2023-05-06T17:40:53.279Z,99729.50
2023-05-06T17:43:20.203Z,99725.16
2023-05-06T17:45:47.248Z,99728.50
2023-05-06T17:48:14.329Z,99729.34
2023-05-06T17:50:41.235Z,99726.16
2023-05-06T17:53:08.196Z,99724.59
2023-05-06T17:55:35.217Z,99727.25
2023-05-06T17:58:02.126Z,99718.75
2023-05-06T18:00:29.079Z,99717.06
2023-05-06T18:02:56.170Z,99714.50
2023-05-06T18:05:25.531Z,99711.97
2023-05-06T18:07:52.953Z,99722.28
2023-05-06T18:10:20.008Z,99715.56
2023-05-06T18:12:47.205Z,99707.06
2023-05-06T18:15:14.553Z,99707.13
2023-05-06T18:17:41.786Z,99704.63
2023-05-06T18:20:10.136Z,99706.38
2023-05-06T18:22:37.113Z,99710.69
2023-05-06T18:25:04.575Z,99713.28
2023-05-06T18:27:32.433Z,99721.91
2023-05-06T18:29:59.565Z,99711.78
2023-05-06T18:32:26.684Z,99713.56
2023-05-06T18:34:53.980Z,99713.59
2023-05-06T18:37:21.119Z,99710.25
2023-05-06T18:39:48.303Z,99711.22
2023-05-06T18:42:15.420Z,99713.03
2023-05-06T18:44:43.072Z,99707.13
2023-05-06T18:47:10.036Z,99722.56
2023-05-06T18:49:36.978Z,99721.84
2023-05-06T18:52:04.584Z,99720.22
2023-05-06T18:54:31.515Z,99717.69
2023-05-06T18:56:58.667Z,99720.41
2023-05-06T18:59:26.080Z,99720.59
2023-05-06T19:01:53.098Z,99724.19
2023-05-06T19:04:20.220Z,99729.50
2023-05-06T19:06:47.689Z,99724.06
2023-05-06T19:09:14.646Z,99728.56
2023-05-06T19:11:41.629Z,99724.63
2023-05-06T19:14:08.683Z,99714.72
2023-05-06T19:16:35.707Z,99720.09
2023-05-06T19:19:06.857Z,99731.38
2023-05-06T19:21:34.953Z,99722.19
2023-05-06T19:24:01.956Z,99723.28
2023-05-06T19:26:28.917Z,99725.09
2023-05-06T19:28:55.845Z,99716.75
2023-05-06T19:31:22.829Z,99716.88
2023-05-06T19:33:50.074Z,99724.72
2023-05-06T19:36:17.082Z,99721.47
2023-05-06T19:38:44.047Z,99721.59
2023-05-06T19:41:11.061Z,99718.34
2023-05-06T19:43:42.861Z,99716.69
2023-05-06T19:46:11.541Z,99717.69
2023-05-06T19:48:41.386Z,99712.72
2023-05-06T19:51:08.696Z,99712.81
2023-05-06T19:53:36.586Z,99718.94
2023-05-06T19:56:11.387Z,99724.16
2023-05-06T19:58:39.331Z,99726.00
2023-05-06T20:01:06.470Z,99725.19
2023-05-06T20:03:35.258Z,99725.28
2023-05-06T20:06:02.795Z,99717.69
2023-05-06T20:08:30.915Z,99724.53
2023-05-06T20:10:57.916Z,99734.81
2023-05-06T20:13:25.026Z,99722.06
2023-05-06T20:15:54.874Z,99722.97
2023-05-06T20:18:22.694Z,99728.16
2023-05-06T20:20:49.697Z,99726.53
2023-05-06T20:23:16.686Z,99718.94
2023-05-06T20:25:43.906Z,99726.66
2023-05-06T20:28:19.151Z,99728.50
2023-05-06T20:30:48.154Z,99730.25
2023-05-06T20:33:15.474Z,99726.91
2023-05-06T20:35:42.598Z,99731.28
2023-05-06T20:38:10.929Z,99724.50
2023-05-06T20:40:38.053Z,99728.88
2023-05-06T20:43:05.027Z,99725.53
2023-05-06T20:45:32.044Z,99723.06
2023-05-06T20:47:59.113Z,99732.44
2023-05-06T20:50:28.462Z,99730.75
2023-05-06T20:52:55.787Z,99729.06
2023-05-06T20:55:23.697Z,99741.84
2023-05-06T20:57:50.834Z,99727.38
2023-05-06T21:00:19.202Z,99726.50
2023-05-06T21:02:46.288Z,99728.19
2023-05-06T21:05:17.432Z,99725.63
2023-05-06T21:07:46.915Z,99721.38
2023-05-06T21:10:15.600Z,99725.56
2023-05-06T21:12:54.825Z,99715.38
2023-05-06T21:15:26.269Z,99727.31
2023-05-06T21:17:55.015Z,99716.25
2023-05-06T21:20:22.078Z,99714.56
2023-05-06T21:22:49.001Z,99713.75
2023-05-06T21:25:16.107Z,99712.09
2023-05-06T21:27:43.276Z,99709.56
2023-05-06T21:30:10.813Z,99707.91
2023-05-06T21:32:37.868Z,99711.38
2023-05-06T21:35:05.649Z,99709.69
2023-05-06T21:37:32.742Z,99712.25
2023-05-06T21:40:02.610Z,99713.03
2023-05-06T21:42:29.917Z,99714.72
2023-05-06T21:45:04.968Z,99717.25
2023-05-06T21:47:37.858Z,99718.09
2023-05-06T21:50:16.651Z,99713.84
2023-05-06T21:52:47.211Z,99713.91
2023-05-06T21:55:14.413Z,99722.44
2023-05-06T21:57:44.662Z,99721.63
2023-05-06T22:00:14.459Z,99720.84
2023-05-06T22:02:42.100Z,99719.19
2023-05-06T22:05:09.543Z,99719.22
2023-05-06T22:07:36.917Z,99722.69
2023-05-06T22:10:04.954Z,99721.84
2023-05-06T22:12:32.466Z,99722.81
2023-05-06T22:14:59.443Z,99713.44
2023-05-06T22:17:27.250Z,99717.69
2023-05-06T22:19:54.449Z,99721.09
2023-05-06T22:22:21.978Z,99718.56
2023-05-06T22:24:48.973Z,99722.84
2023-05-06T22:27:16.475Z,99722.84
2023-05-06T22:29:44.135Z,99726.22
2023-05-06T22:32:11.423Z,99719.47
2023-05-06T22:34:38.419Z,99727.88
2023-05-06T22:37:09.757Z,99721.88
2023-05-06T22:39:36.921Z,99715.09
2023-05-06T22:42:03.901Z,99715.13
2023-05-06T22:44:30.972Z,99722.81
2023-05-06T22:46:57.882Z,99717.78
2023-05-06T22:49:28.779Z,99710.16
2023-05-06T22:51:56.997Z,99711.84
2023-05-06T22:54:24.545Z,99716.94
2023-05-06T22:56:51.699Z,99723.75
2023-05-06T22:59:19.217Z,99721.25
2023-05-06T23:01:47.750Z,99716.22
2023-05-06T23:04:15.231Z,99712.91
2023-05-06T23:06:42.328Z,99715.56
2023-05-06T23:09:09.417Z,99720.75
2023-05-06T23:11:36.414Z,99719.03
2023-05-06T23:14:04.539Z,99714.81
2023-05-06T23:16:31.508Z,99724.13
2023-05-06T23:18:58.497Z,99726.69
2023-05-06T23:21:26.426Z,99723.22
2023-05-06T23:23:53.844Z,99723.31
2023-05-06T23:26:21.181Z,99719.16
2023-05-06T23:28:48.239Z,99726.88
2023-05-06T23:31:15.866Z,99726.91
2023-05-06T23:33:43.097Z,99728.69
2023-05-06T23:36:10.460Z,99723.63
2023-05-06T23:38:37.497Z,99716.81
2023-05-06T23:41:04.811Z,99716.88
2023-05-06T23:43:31.812Z,99719.47
2023-05-06T23:45:59.061Z,99717.09
2023-05-06T23:48:26.094Z,99717.16
2023-05-06T23:50:54.511Z,99718.09
2023-05-06T23:53:21.677Z,99722.44
2023-05-06T23:55:49.997Z,99718.28
2023-05-06T23:58:17.002Z,99719.19
